Hovedside
METAR-TAF:

METAR-TAF

Lufthavner :

Eleftherios Venizelos internasjonale lufthavn

Athen, Hellas

breddegrad: 37-56N, lengdegrad: 023-56E, høyde over havet: 94 m

Gjeldene værobservasjon

Denne rapporten ble laget for 35 minutter siden, klokken 09:20 UTC
Vind 21 kt fra Nord-nordøst
Temperatur 24°C
Luftfuktighet 41%
Trykk 1015 hPa
Sikt 10 km eller mer
Få skyer i en høyde av 2500 ft

METAR: LGAV 200920Z 02021KT 9999 FEW025 24/10 Q1015 NOSIG

Tid: 12:55 (09:55 UTC)

Varsel

Denne rapporten ble laget for 4 timer og 55 minutter siden, klokken 05:00 UTC
Varsel gyldig fra 20. klokken 06 UTC til 21. klokken 06 UTC
Vind 17 kt fra Nord
Sikt 10 km eller mer
Få skyer i en høyde av 2500 ft
Midlertidig
fra 20. klokken 06 UTC til 20. klokken 09 UTC
Vind 20 kt fra Nord med vindkast opp mot 30 kt

TAF: LGAV 200500Z 2006/2106 01017KT 9999 FEW025 TEMPO 2006/2009 01020G30KT

Værobservasjoner og værvarsel for over 4000 flyplasser (METAR- og TAF-rapporter).

Tilgjengelige stasjoner er representert av de røde og gule prikkene på kartet.

Hold musepekeren over prikken for å se navnet på stasjonen.

Klikk så for å se værobservasjoner og -varsler.

For å forandre kartet kan du klikke på den grønne knappen med svart kryss for å zoome inn, på den grønne knappen med strek for å zoome ut, eller på de grønne pilene for å se tilstøtende kart.


METAR-TAF: